Flight Track Log - Related Links

Times and Time Zones

All times are in EDT time to prevent confusion due to time zone crossing. See the FLG4152 flight status page for this flight to view local times or setup timezone preferences in your user account.

Time Position Orientation Groundspeed Altitude Reporting Facility
EDT Latitude Longitude Course Direction KTS MPH feet Rate Location/Type
Thu 09:15:15 PM 39.0500 -84.6833 109° East 158 182 1,400  Level Cincinnati TRACON
Thu 09:15:57 PM 39.0667 -84.7000 322° Northwest 152 175 3,000 1,824 Climbing Cincinnati TRACON
Thu 09:16:57 PM 39.0833 -84.6333 72° East 247 284 4,500 1,291 Climbing Cincinnati TRACON
Thu 09:17:16 PM 39.0744 -84.6128 119° Southeast 255 293 4,700 1,926 Climbing Indianapolis Center
Thu 09:18:00 PM 38.8871 -84.1655 101° East  Level FlightAware Approximate
Thu 09:18:18 PM 39.0789 -84.5169 87° East 266 306 7,100  Level Indianapolis Center
Thu 09:19:00 PM 38.8649 -84.0211 100° East  Level FlightAware Approximate
Thu 09:19:19 PM 39.0414 -84.4217 117° Southeast 300 345 9,000  Level Indianapolis Center
Thu 09:20:00 PM 38.8395 -83.8780 109° East  Level FlightAware Approximate
Thu 09:20:21 PM 38.9919 -84.3061 119° Southeast 314 361 10,800  Level Indianapolis Center
Thu 09:21:23 PM 38.9433 -84.1986 120° Southeast 343 395 11,900 1,113 Climbing Indianapolis Center
Thu 09:22:25 PM 38.8939 -84.0828 119° Southeast 364 419 13,100 1,122 Climbing Indianapolis Center
Thu 09:23:26 PM 38.8581 -83.9539 110° East 381 438 14,200 1,268 Climbing Indianapolis Center
Thu 09:24:28 PM 38.8289 -83.8156 105° East 396 456 15,700 1,500 Climbing Indianapolis Center
Thu 09:25:30 PM 38.7981 -83.6772 106° East 402 463 17,300 1,355 Climbing Indianapolis Center
Thu 09:26:32 PM 38.7686 -83.5356 105° East 408 470 18,500 1,171 Climbing Indianapolis Center
Thu 09:27:33 PM 38.7644 -83.3881 92° East 411 473 19,700 1,220 Climbing Indianapolis Center
Thu 09:28:35 PM 38.7636 -83.2119 90° East 419 482 21,000 1,161 Climbing Indianapolis Center
Thu 09:29:37 PM 38.7625 -83.0569 90° East 425 489 22,100 968 Climbing Indianapolis Center
Thu 09:30:39 PM 38.7617 -82.9031 90° East 429 494 23,000 439 Climbing Indianapolis Center
Thu 09:31:40 PM 38.7117 -82.7497 113° Southeast 468 539 23,000  Level Indianapolis Center
Thu 09:32:42 PM 38.6553 -82.5933 115° Southeast 483 556 23,000  Level Indianapolis Center
Thu 09:33:44 PM 38.5961 -82.4325 115° Southeast 498 573 23,000  Level Indianapolis Center
Thu 09:34:46 PM 38.5353 -82.2708 116° Southeast 505 581 23,000  Level Indianapolis Center
Thu 09:35:47 PM 38.4753 -82.1075 115° Southeast 509 586 23,000  Level Indianapolis Center
Thu 09:36:49 PM 38.4036 -81.9150 115° Southeast 506 582 23,000 339 Level Indianapolis Center
Thu 09:37:51 PM 38.3489 -81.7575 114° Southeast 491 565 23,700 774 Climbing Indianapolis Center
Thu 09:38:53 PM 38.3225 -81.5961 102° East 477 549 24,600 780 Climbing Indianapolis Center
Thu 09:39:54 PM 38.2964 -81.4361 102° East 469 540 25,300 732 Climbing Indianapolis Center
Thu 09:40:56 PM 38.2706 -81.2764 102° East 465 535 26,100 823 Climbing Indianapolis Center
Thu 09:41:58 PM 38.2397 -81.0850 102° East 463 533 27,000 435 Climbing Indianapolis Center
Thu 09:43:00 PM 38.2136 -80.9247 102° East 465 535 27,000  Level Indianapolis Center
Thu 09:44:01 PM 38.1858 -80.7578 102° East 481 554 27,000  Level Indianapolis Center
Thu 09:45:03 PM 38.1581 -80.5894 102° East 488 562 27,000  Level Indianapolis Center
Thu 09:45:59 PM 38.1333 -80.4467 102° East 479 551 27,000 -947 Level Washington Center
Thu 09:46:57 PM 38.1031 -80.2625 102° East 479 551 25,200 -1,513 Descending Washington Center
Thu 09:47:58 PM 38.0761 -80.0972 102° East 479 551 24,000 -750 Descending Washington Center
Thu 09:48:57 PM 38.0467 -79.9347 103° East 474 545 23,700 -908 Descending Washington Center
Thu 09:49:57 PM 38.0211 -79.7725 101° East 469 540 22,200 -1,339 Descending Washington Center
Thu 09:50:58 PM 37.9914 -79.6100 103° East 474 545 21,000 -595 Descending Washington Center
Thu 09:51:58 PM 37.9669 -79.4664 102° East 469 540 21,000  Level Washington Center
Thu 09:52:57 PM 37.9383 -79.3097 103° East 464 534 21,000  Level Washington Center
Thu 09:53:57 PM 37.9100 -79.1503 103° East 459 528 21,000 -500 Level Washington Center
Thu 09:54:57 PM 37.8725 -79.0011 108° East 454 522 20,000 2,975 Descending Washington Center
Thu 09:55:58 PM 37.8247 -78.8386 110° East 449 517 27,000 -1,686 Climbing Washington Center
Thu 09:56:58 PM 37.7847 -78.6950 109° East 444 511 16,600 -5,950 Descending Washington Center
Thu 09:57:58 PM 37.7447 -78.5542 110° East 432 497 15,100 -1,140 Descending Washington Center
Thu 09:58:59 PM 37.7042 -78.4186 111° Southeast 425 489 14,300 -1,636 Descending Washington Center
Thu 09:59:59 PM 37.6672 -78.2939 110° East 407 468 11,800 -2,237 Descending Washington Center
Thu 10:00:57 PM 37.6403 -78.1961 109° East 365 420 9,900 -1,424 Descending Washington Center
Thu 10:01:57 PM 37.6050 -78.0875 112° Southeast 343 395 9,000 -450 Descending Washington Center
Thu 10:02:57 PM 37.5717 -77.9867 113° Southeast 319 367 9,000 -446 Level Washington Center
Thu 10:03:58 PM 37.5064 -77.9139 138° Southeast 306 352 8,100 -1,131 Descending Washington Center
Thu 10:04:59 PM 37.4431 -77.8467 140° Southeast 300 345 6,700 -1,664 Descending Washington Center
Thu 10:05:57 PM 37.3794 -77.7819 141° Southeast 300 345 4,800 -1,210 Descending Washington Center
Thu 10:06:58 PM 37.3308 -77.7050 128° Southeast 295 339 4,300 -295 Descending Washington Center
Thu 10:07:59 PM 37.2800 -77.6225 128° Southeast 290 334 4,200 -498 Descending Washington Center
Thu 10:10:23 PM 37.2833 -77.3833 89° East 241 277 2,600 -761 Descending Potomac TRACON
Thu 10:11:24 PM 37.3000 -77.3167 73° East 226 260 1,600 -446 Descending Potomac TRACON
Thu 10:12:24 PM 37.3500 -77.2667 38° Northeast 213 245 1,700 100 Climbing Potomac TRACON

Login

Don't have an account? Register now (free) for customized features, flight alerts, and more!